createdAt,value
2023-01-09T00:00:01.838Z,97195.25
2023-01-09T00:02:29.527Z,97179.84
2023-01-09T00:04:58.491Z,97192.53
2023-01-09T00:07:26.193Z,97185.63
2023-01-09T00:09:53.869Z,97183.19
2023-01-09T00:12:21.530Z,97177.75
2023-01-09T00:14:49.171Z,97163.16
2023-01-09T00:17:16.808Z,97141.09
2023-01-09T00:19:44.655Z,97166.53
2023-01-09T00:22:13.646Z,97153.25
2023-01-09T00:24:41.704Z,97134.34
2023-01-09T00:27:09.501Z,97138.94
2023-01-09T00:29:37.099Z,97125.06
2023-01-09T00:32:10.036Z,97139.84
2023-01-09T00:34:38.395Z,97102.34
2023-01-09T00:37:11.966Z,97124.75
2023-01-09T00:39:41.442Z,97116.41
2023-01-09T00:42:11.736Z,97115.34
2023-01-09T00:44:42.584Z,97145.00
2023-01-09T00:47:16.991Z,97142.47
2023-01-09T00:49:45.596Z,97147.72
2023-01-09T00:52:15.114Z,97175.84
2023-01-09T00:54:48.635Z,97175.28
2023-01-09T00:57:21.493Z,97165.34
2023-01-09T00:59:52.308Z,97156.28
2023-01-09T01:02:20.824Z,97147.03
2023-01-09T01:05:06.144Z,97167.72
2023-01-09T01:07:40.139Z,97141.25
2023-01-09T01:10:16.432Z,97170.25
2023-01-09T01:12:46.546Z,97179.34
2023-01-09T01:15:15.891Z,97201.41
2023-01-09T01:17:44.782Z,97173.00
2023-01-09T01:20:16.025Z,97171.13
2023-01-09T01:22:43.975Z,97187.69
2023-01-09T01:25:15.281Z,97174.78
2023-01-09T01:27:43.597Z,97195.09
2023-01-09T01:30:13.532Z,97173.97
2023-01-09T01:32:42.119Z,97199.97
2023-01-09T01:35:11.034Z,97200.28
2023-01-09T01:37:40.123Z,97169.88
2023-01-09T01:40:10.955Z,97193.47
2023-01-09T01:42:38.734Z,97196.53
2023-01-09T01:47:41.976Z,97209.72
2023-01-09T01:50:13.783Z,97193.09
2023-01-09T01:52:43.056Z,97200.38
2023-01-09T01:55:12.320Z,97214.41
2023-01-09T01:57:42.525Z,97210.03
2023-01-09T02:00:12.447Z,97210.38
2023-01-09T02:05:31.871Z,97206.19
2023-01-09T02:07:59.884Z,97162.69
2023-01-09T02:12:55.282Z,97213.66
2023-01-09T02:15:23.380Z,97201.59
2023-01-09T02:20:47.585Z,97187.34
2023-01-09T02:25:51.748Z,97208.91
2023-01-09T02:31:06.739Z,97206.84
2023-01-09T02:33:36.752Z,97192.81
2023-01-09T02:38:39.821Z,97214.22
2023-01-09T02:43:36.736Z,97218.44
2023-01-09T02:46:06.040Z,97220.56
2023-01-09T02:48:33.800Z,97223.75
2023-01-09T02:51:10.398Z,97220.69
2023-01-09T02:53:39.746Z,97218.16
2023-01-09T02:58:50.861Z,97243.22
2023-01-09T03:01:27.866Z,97246.22
2023-01-09T03:04:02.682Z,97245.91
2023-01-09T03:06:35.604Z,97248.06
2023-01-09T03:09:06.557Z,97256.22
2023-01-09T03:11:36.977Z,97268.66
2023-01-09T03:14:08.358Z,97275.13
2023-01-09T03:16:38.419Z,97269.69
2023-01-09T03:19:08.847Z,97279.50
2023-01-09T03:21:36.968Z,97288.97
2023-01-09T03:24:05.174Z,97283.16
2023-01-09T03:26:32.957Z,97286.44
2023-01-09T03:29:00.935Z,97299.44
2023-01-09T03:31:28.621Z,97308.66
2023-01-09T03:33:57.688Z,97315.63
2023-01-09T03:36:25.746Z,97326.09
2023-01-09T03:38:53.616Z,97292.22
2023-01-09T03:41:21.287Z,97312.97
2023-01-09T03:43:49.383Z,97316.53
2023-01-09T03:46:17.635Z,97308.84
2023-01-09T03:48:45.628Z,97328.19
2023-01-09T03:51:14.573Z,97325.50
2023-01-09T03:53:42.319Z,97328.78
2023-01-09T03:56:09.941Z,97325.09
2023-01-09T03:58:37.623Z,97324.41
2023-01-09T04:01:09.379Z,97338.69
2023-01-09T04:03:37.275Z,97326.88
2023-01-09T04:06:05.434Z,97327.72
2023-01-09T04:08:34.497Z,97330.41
2023-01-09T04:11:02.236Z,97343.94
2023-01-09T04:13:29.959Z,97356.78
2023-01-09T04:15:57.576Z,97373.47
2023-01-09T04:18:25.277Z,97349.44
2023-01-09T04:20:55.211Z,97354.50
2023-01-09T04:23:23.018Z,97360.16
2023-01-09T04:25:51.963Z,97366.91
2023-01-09T04:28:19.621Z,97392.75
2023-01-09T04:30:47.227Z,97371.81
2023-01-09T04:33:14.878Z,97397.81
2023-01-09T04:35:42.541Z,97375.53
2023-01-09T04:38:10.183Z,97386.06
2023-01-09T04:40:37.778Z,97389.59
2023-01-09T04:43:06.740Z,97360.41
2023-01-09T04:45:34.401Z,97396.09
2023-01-09T04:48:02.094Z,97402.03
2023-01-09T04:50:31.336Z,97367.94
2023-01-09T04:52:59.163Z,97404.25
2023-01-09T04:55:26.768Z,97387.03
2023-01-09T04:57:54.540Z,97394.78
2023-01-09T05:00:23.644Z,97418.25
2023-01-09T05:02:51.533Z,97401.53
2023-01-09T05:05:19.517Z,97409.13
2023-01-09T05:07:47.280Z,97430.34
2023-01-09T05:10:14.993Z,97424.88
2023-01-09T05:12:42.676Z,97458.94
2023-01-09T05:15:10.943Z,97450.75
2023-01-09T05:17:39.927Z,97462.06
2023-01-09T05:20:08.302Z,97462.41
2023-01-09T05:22:36.702Z,97456.31
2023-01-09T05:30:21.492Z,97446.47
2023-01-09T05:32:50.621Z,97480.72
2023-01-09T05:35:18.661Z,97484.75
2023-01-09T05:37:46.270Z,97497.13
2023-01-09T05:40:14.760Z,97504.19
2023-01-09T05:42:43.770Z,97507.78
2023-01-09T05:45:12.695Z,97514.00
2023-01-09T05:47:40.416Z,97508.63
2023-01-09T05:50:10.854Z,97514.00
2023-01-09T05:52:38.665Z,97506.94
2023-01-09T05:55:07.558Z,97474.19
2023-01-09T05:57:35.324Z,97488.94
2023-01-09T06:00:05.929Z,97501.84
2023-01-09T06:02:33.778Z,97505.84
2023-01-09T06:05:01.451Z,97503.88
2023-01-09T06:07:30.379Z,97506.84
2023-01-09T06:09:57.961Z,97501.84
2023-01-09T06:12:26.099Z,97503.22
2023-01-09T06:14:53.772Z,97515.16
2023-01-09T06:17:21.399Z,97508.63
2023-01-09T06:19:49.012Z,97480.59
2023-01-09T06:22:16.638Z,97517.31
2023-01-09T06:24:45.592Z,97514.47
2023-01-09T06:27:13.694Z,97519.16
2023-01-09T06:29:41.695Z,97524.56
2023-01-09T06:32:09.329Z,97505.72
2023-01-09T06:34:36.956Z,97503.66
2023-01-09T06:37:04.595Z,97513.19
2023-01-09T06:39:33.925Z,97531.25
2023-01-09T06:42:03.358Z,97542.63
2023-01-09T06:44:31.037Z,97547.84
2023-01-09T06:46:58.670Z,97558.00
2023-01-09T06:49:26.509Z,97550.22
2023-01-09T06:51:54.294Z,97541.84
2023-01-09T06:54:22.532Z,97552.53
2023-01-09T06:56:50.271Z,97537.84
2023-01-09T06:59:19.438Z,97519.56
2023-01-09T07:01:47.268Z,97495.88
2023-01-09T07:04:17.649Z,97524.72
2023-01-09T07:06:48.229Z,97553.00
2023-01-09T07:09:15.947Z,97554.31
2023-01-09T07:11:43.916Z,97556.41
2023-01-09T07:14:11.611Z,97536.16
2023-01-09T07:16:40.886Z,97562.00
2023-01-09T07:19:08.572Z,97565.16
2023-01-09T07:21:36.269Z,97541.63
2023-01-09T07:24:04.064Z,97565.06
2023-01-09T07:29:18.560Z,97578.16
2023-01-09T07:31:47.710Z,97575.38
2023-01-09T07:34:15.299Z,97563.47
2023-01-09T07:36:46.334Z,97587.25
2023-01-09T07:39:14.083Z,97589.69
2023-01-09T07:41:41.700Z,97600.78
2023-01-09T07:44:11.062Z,97604.38
2023-01-09T07:46:39.047Z,97612.38
2023-01-09T07:49:08.382Z,97592.31
2023-01-09T07:51:39.000Z,97611.63
2023-01-09T07:54:06.969Z,97584.63
2023-01-09T07:56:34.542Z,97620.94
2023-01-09T07:59:02.289Z,97616.00
2023-01-09T08:01:29.969Z,97621.56
2023-01-09T08:03:57.628Z,97630.97
2023-01-09T08:06:26.602Z,97621.41
2023-01-09T08:08:54.238Z,97631.09
2023-01-09T08:11:21.875Z,97623.94
2023-01-09T08:13:49.397Z,97590.53
2023-01-09T08:16:17.080Z,97628.63
2023-01-09T08:18:44.779Z,97631.66
2023-01-09T08:21:12.434Z,97629.63
2023-01-09T08:23:41.399Z,97622.88
2023-01-09T08:26:09.269Z,97624.16
2023-01-09T08:28:36.836Z,97626.97
2023-01-09T08:31:04.580Z,97617.13
2023-01-09T08:33:32.722Z,97591.91
2023-01-09T08:36:00.333Z,97624.28
2023-01-09T08:38:27.966Z,97627.84
2023-01-09T08:40:56.973Z,97629.69
2023-01-09T08:43:42.086Z,97634.53
2023-01-09T08:46:34.793Z,97607.00
2023-01-09T08:49:02.574Z,97612.53
2023-01-09T08:51:30.486Z,97644.41
2023-01-09T08:53:58.042Z,97640.09
2023-01-09T08:56:27.052Z,97633.00
2023-01-09T08:58:56.994Z,97605.41
2023-01-09T09:01:24.731Z,97646.16
2023-01-09T09:03:52.437Z,97639.16
2023-01-09T09:06:20.129Z,97644.84
2023-01-09T09:08:47.732Z,97650.41
2023-01-09T09:11:15.341Z,97651.19
2023-01-09T09:13:44.307Z,97659.09
2023-01-09T09:16:12.127Z,97652.94
2023-01-09T09:18:39.958Z,97652.47
2023-01-09T09:21:08.291Z,97651.56
2023-01-09T09:23:37.210Z,97654.78
2023-01-09T09:26:05.076Z,97647.00
2023-01-09T09:28:32.670Z,97657.09
2023-01-09T09:31:01.690Z,97659.09
2023-01-09T09:33:30.247Z,97657.25
2023-01-09T09:35:59.492Z,97668.13
2023-01-09T09:38:27.542Z,97667.88
2023-01-09T09:41:38.588Z,97661.16
2023-01-09T09:44:52.736Z,97666.41
2023-01-09T09:47:33.045Z,97670.25
2023-01-09T09:50:07.459Z,97677.41
2023-01-09T09:52:40.835Z,97678.25
2023-01-09T09:55:16.372Z,97676.63
2023-01-09T09:57:45.135Z,97679.72
2023-01-09T10:00:17.381Z,97677.72
2023-01-09T10:02:51.641Z,97684.41
2023-01-09T10:05:22.513Z,97685.41
2023-01-09T10:07:51.420Z,97687.78
2023-01-09T10:10:24.161Z,97694.72
2023-01-09T10:12:54.689Z,97681.38
2023-01-09T10:15:38.987Z,97685.97
2023-01-09T10:18:17.625Z,97675.59
2023-01-09T10:20:56.573Z,97674.75
2023-01-09T10:23:36.044Z,97675.50
2023-01-09T10:26:08.202Z,97674.50
2023-01-09T10:28:51.335Z,97674.25
2023-01-09T10:31:27.336Z,97676.31
2023-01-09T10:34:04.786Z,97674.53
2023-01-09T10:36:49.405Z,97679.25
2023-01-09T10:39:20.008Z,97680.69
2023-01-09T10:41:53.791Z,97680.69
2023-01-09T10:44:25.299Z,97667.09
2023-01-09T10:46:55.290Z,97679.75
2023-01-09T10:49:25.422Z,97679.00
2023-01-09T10:51:54.240Z,97678.50
2023-01-09T10:54:23.713Z,97671.66
2023-01-09T10:56:58.417Z,97678.34
2023-01-09T10:59:26.360Z,97672.41
2023-01-09T11:01:54.704Z,97671.41
2023-01-09T11:04:28.265Z,97667.59
2023-01-09T11:06:59.824Z,97662.28
2023-01-09T11:09:27.504Z,97661.44
2023-01-09T11:11:55.307Z,97669.47
2023-01-09T11:14:31.112Z,97661.34
2023-01-09T11:17:01.356Z,97626.53
2023-01-09T11:19:33.226Z,97623.47
2023-01-09T11:22:08.684Z,97640.03
2023-01-09T11:24:36.414Z,97655.00
2023-01-09T11:27:25.136Z,97664.38
2023-01-09T11:30:26.439Z,97664.41
2023-01-09T11:32:55.424Z,97656.13
2023-01-09T11:35:28.182Z,97663.38
2023-01-09T11:38:03.566Z,97673.63
2023-01-09T11:40:36.832Z,97669.56
2023-01-09T11:43:12.566Z,97645.53
2023-01-09T11:45:53.191Z,97651.38
2023-01-09T11:48:35.965Z,97637.94
2023-01-09T11:51:06.947Z,97655.69
2023-01-09T11:53:47.290Z,97671.50
2023-01-09T11:56:15.862Z,97674.47
2023-01-09T11:58:43.674Z,97688.00
2023-01-09T12:01:31.553Z,97682.75
2023-01-09T12:04:10.365Z,97682.34
2023-01-09T12:06:45.104Z,97680.13
2023-01-09T12:09:18.812Z,97681.75
2023-01-09T12:11:51.592Z,97694.53
2023-01-09T12:14:30.098Z,97661.88
2023-01-09T12:17:21.522Z,97668.81
2023-01-09T12:20:01.787Z,97691.56
2023-01-09T12:22:38.251Z,97690.38
2023-01-09T12:25:23.426Z,97676.50
2023-01-09T12:28:04.789Z,97667.69
2023-01-09T12:30:45.597Z,97685.03
2023-01-09T12:33:23.200Z,97692.16
2023-01-09T12:35:57.251Z,97684.78
2023-01-09T12:38:48.845Z,97686.63
2023-01-09T12:41:54.260Z,97683.94
2023-01-09T12:44:42.427Z,97679.03
2023-01-09T12:47:19.633Z,97683.84
2023-01-09T12:49:52.851Z,97684.44
2023-01-09T12:52:23.396Z,97688.94
2023-01-09T12:54:54.804Z,97684.69
2023-01-09T12:57:27.829Z,97692.47
2023-01-09T12:59:57.981Z,97696.44
2023-01-09T13:02:30.590Z,97702.34
2023-01-09T13:05:00.861Z,97690.50
2023-01-09T13:07:31.496Z,97710.16
2023-01-09T13:10:06.339Z,97702.19
2023-01-09T13:12:37.073Z,97709.72
2023-01-09T13:15:07.693Z,97702.78
2023-01-09T13:17:40.190Z,97708.44
2023-01-09T13:20:19.310Z,97681.19
2023-01-09T13:22:50.223Z,97705.22
2023-01-09T13:25:32.379Z,97711.75
2023-01-09T13:28:02.129Z,97720.03
2023-01-09T13:30:59.939Z,97710.38
2023-01-09T13:33:29.629Z,97709.72
2023-01-09T13:35:59.182Z,97694.09
2023-01-09T13:38:28.820Z,97706.50
2023-01-09T13:41:30.341Z,97712.94
2023-01-09T13:43:59.828Z,97710.06
2023-01-09T13:46:36.797Z,97702.03
2023-01-09T13:49:04.871Z,97711.44
2023-01-09T13:51:58.803Z,97711.09
2023-01-09T13:55:01.665Z,97711.00
2023-01-09T13:57:33.019Z,97706.78
2023-01-09T14:00:39.456Z,97712.97
2023-01-09T14:03:20.405Z,97717.34
2023-01-09T14:06:11.920Z,97725.97
2023-01-09T14:08:41.773Z,97719.28
2023-01-09T14:11:10.029Z,97723.88
2023-01-09T14:13:42.485Z,97729.69
2023-01-09T14:16:17.365Z,97706.06
2023-01-09T14:18:50.462Z,97738.81
2023-01-09T14:21:18.799Z,97734.94
2023-01-09T14:23:56.051Z,97742.28
2023-01-09T14:26:27.468Z,97717.81
2023-01-09T14:29:45.531Z,97748.28
2023-01-09T14:32:39.002Z,97752.00
2023-01-09T14:35:14.045Z,97753.44
2023-01-09T14:37:41.963Z,97764.78
2023-01-09T14:40:17.337Z,97762.25
2023-01-09T14:42:46.126Z,97763.66
2023-01-09T14:45:20.929Z,97769.19
2023-01-09T14:47:51.338Z,97774.59
2023-01-09T14:50:26.727Z,97791.81
2023-01-09T14:52:56.776Z,97784.13
2023-01-09T14:55:28.057Z,97795.19
2023-01-09T14:57:56.988Z,97791.88
2023-01-09T15:00:26.237Z,97804.78
2023-01-09T15:02:54.460Z,97801.59
2023-01-09T15:05:24.131Z,97806.97
2023-01-09T15:07:54.336Z,97795.44
2023-01-09T15:10:23.506Z,97807.75
2023-01-09T15:12:52.896Z,97813.41
2023-01-09T15:15:21.747Z,97815.56
2023-01-09T15:17:55.315Z,97819.81
2023-01-09T15:20:25.471Z,97831.97
2023-01-09T15:22:54.848Z,97839.59
2023-01-09T15:25:33.827Z,97847.94
2023-01-09T15:28:25.141Z,97848.63
2023-01-09T15:30:56.419Z,97831.97
2023-01-09T15:33:25.628Z,97873.13
2023-01-09T15:36:00.028Z,97873.34
2023-01-09T15:38:28.816Z,97853.00
2023-01-09T15:41:00.852Z,97888.84
2023-01-09T15:43:30.545Z,97891.94
2023-01-09T15:45:58.699Z,97900.59
2023-01-09T15:48:30.655Z,97898.69
2023-01-09T15:51:01.825Z,97903.44
2023-01-09T15:53:30.394Z,97890.81
2023-01-09T15:56:16.130Z,97919.09
2023-01-09T15:58:47.185Z,97916.19
2023-01-09T16:01:30.785Z,97927.66
2023-01-09T16:04:05.975Z,97931.47
2023-01-09T16:06:35.573Z,97919.94
2023-01-09T16:09:03.864Z,97929.78
2023-01-09T16:11:33.737Z,97934.03
2023-01-09T16:14:13.381Z,97944.34
2023-01-09T16:16:41.819Z,97943.81
2023-01-09T16:19:42.504Z,97952.16
2023-01-09T16:22:21.700Z,97950.47
2023-01-09T16:24:53.405Z,97935.91
2023-01-09T16:27:23.802Z,97947.78
2023-01-09T16:29:57.407Z,97936.97
2023-01-09T16:32:27.727Z,97975.94
2023-01-09T16:34:58.150Z,97973.03
2023-01-09T16:37:26.630Z,97985.72
2023-01-09T16:40:24.077Z,97993.91
2023-01-09T16:43:01.053Z,97987.50
2023-01-09T16:45:30.386Z,98009.25
2023-01-09T16:47:58.451Z,98007.69
2023-01-09T16:50:27.755Z,98014.56
2023-01-09T16:52:56.948Z,98022.47
2023-01-09T16:55:24.795Z,98024.66
2023-01-09T16:57:52.503Z,98031.19
2023-01-09T17:00:22.058Z,98040.47
2023-01-09T17:02:49.787Z,98053.50
2023-01-09T17:05:17.582Z,98038.97
2023-01-09T17:07:46.751Z,98055.31
2023-01-09T17:10:20.772Z,98063.75
2023-01-09T17:12:49.541Z,98064.75
2023-01-09T17:15:17.807Z,98044.13
2023-01-09T17:17:45.774Z,98050.41
2023-01-09T17:20:18.163Z,98083.19
2023-01-09T17:22:47.115Z,98093.56
2023-01-09T17:25:33.542Z,98102.34
2023-01-09T17:28:19.284Z,98105.81
2023-01-09T17:30:47.902Z,98111.22
2023-01-09T17:36:03.139Z,98129.72
2023-01-09T17:38:32.282Z,98123.25
2023-01-09T17:40:59.959Z,98136.47
2023-01-09T17:43:27.629Z,98140.31
2023-01-09T17:45:55.417Z,98142.09
2023-01-09T17:48:25.282Z,98147.84
2023-01-09T17:50:52.981Z,98129.19
2023-01-09T17:53:22.698Z,98156.00
2023-01-09T17:55:52.045Z,98145.91
2023-01-09T17:58:27.084Z,98161.13
2023-01-09T18:06:14.368Z,98158.63
2023-01-09T18:11:18.277Z,98164.47
2023-01-09T18:13:48.380Z,98174.56
2023-01-09T18:18:45.354Z,98176.94
2023-01-09T18:23:43.091Z,98164.59
2023-01-09T18:31:34.302Z,98195.09
2023-01-09T18:34:04.260Z,98196.94
2023-01-09T18:39:01.320Z,98210.16
2023-01-09T18:43:58.444Z,98218.19
2023-01-09T18:51:21.380Z,98234.09
2023-01-09T18:56:18.462Z,98255.00
2023-01-09T19:01:15.470Z,98255.44
2023-01-09T19:11:34.709Z,98280.16
2023-01-09T19:16:32.596Z,98276.38
2023-01-09T19:21:30.435Z,98285.22
2023-01-09T19:26:27.452Z,98287.59
2023-01-09T19:31:24.455Z,98288.78
2023-01-09T19:33:55.529Z,98284.47
2023-01-09T19:36:25.351Z,98289.78
2023-01-09T19:41:22.381Z,98299.22
2023-01-09T19:46:17.498Z,98299.16
2023-01-09T19:51:14.437Z,98305.50
2023-01-09T19:56:11.357Z,98315.63
2023-01-09T20:01:38.814Z,98331.84
2023-01-09T20:04:13.799Z,98337.22
2023-01-09T20:06:41.512Z,98343.47
2023-01-09T20:11:36.447Z,98346.38
2023-01-09T20:16:41.404Z,98364.41
2023-01-09T20:21:38.365Z,98363.59
2023-01-09T20:26:35.477Z,98371.56
2023-01-09T20:34:00.447Z,98380.72
2023-01-09T20:38:57.337Z,98390.16
2023-01-09T20:43:55.305Z,98399.19
2023-01-09T20:49:02.994Z,98412.13
2023-01-09T20:51:30.879Z,98413.91
2023-01-09T20:59:12.797Z,98421.84
2023-01-09T21:09:21.540Z,98445.03
2023-01-09T21:16:54.030Z,98459.13
2023-01-09T21:21:53.609Z,98460.09
2023-01-09T21:26:53.434Z,98469.47
2023-01-09T21:31:50.496Z,98474.88
2023-01-09T21:36:48.879Z,98479.19
2023-01-09T21:41:44.418Z,98480.34
2023-01-09T21:49:26.455Z,98496.63
2023-01-09T21:51:56.467Z,98495.72
2023-01-09T21:56:53.449Z,98507.09
2023-01-09T21:59:22.803Z,98481.78
2023-01-09T22:01:50.817Z,98514.03
2023-01-09T22:04:20.584Z,98525.06
2023-01-09T22:06:48.281Z,98526.84
2023-01-09T22:09:16.435Z,98536.34
2023-01-09T22:11:44.713Z,98531.50
2023-01-09T22:14:13.250Z,98547.91
2023-01-09T22:16:43.482Z,98539.66
2023-01-09T22:19:11.448Z,98536.03
2023-01-09T22:21:39.044Z,98547.09
2023-01-09T22:24:07.807Z,98560.31
2023-01-09T22:26:35.913Z,98545.88
2023-01-09T22:29:03.510Z,98550.31
2023-01-09T22:31:32.775Z,98564.84
2023-01-09T22:34:03.304Z,98558.19
2023-01-09T22:36:31.749Z,98562.63
2023-01-09T22:39:00.782Z,98579.47
2023-01-09T22:41:29.859Z,98576.69
2023-01-09T22:43:57.859Z,98583.44
2023-01-09T22:46:25.810Z,98595.69
2023-01-09T22:48:53.393Z,98595.25
2023-01-09T22:51:22.799Z,98597.25
2023-01-09T22:53:51.176Z,98597.91
2023-01-09T22:56:20.529Z,98558.06
2023-01-09T22:58:51.565Z,98602.00
2023-01-09T23:01:19.707Z,98608.94
2023-01-09T23:03:47.783Z,98620.44
2023-01-09T23:06:16.901Z,98612.72
2023-01-09T23:08:46.787Z,98613.59
2023-01-09T23:11:16.202Z,98623.00
2023-01-09T23:13:46.962Z,98620.63
2023-01-09T23:16:18.546Z,98623.94
2023-01-09T23:18:48.223Z,98622.84
2023-01-09T23:21:16.553Z,98636.69
2023-01-09T23:23:45.443Z,98637.34
2023-01-09T23:26:14.895Z,98650.16
2023-01-09T23:28:42.589Z,98657.09
2023-01-09T23:31:10.333Z,98653.50
2023-01-09T23:33:38.021Z,98663.66
2023-01-09T23:36:06.490Z,98680.09
2023-01-09T23:38:35.349Z,98681.00
2023-01-09T23:41:03.182Z,98693.78
2023-01-09T23:43:31.782Z,98699.13
2023-01-09T23:45:59.548Z,98686.25
2023-01-09T23:48:27.676Z,98711.38
2023-01-09T23:50:59.499Z,98704.50
2023-01-09T23:53:27.563Z,98708.34
2023-01-09T23:55:55.879Z,98719.31
2023-01-09T23:58:23.604Z,98722.88
